createdAt,value
2023-04-30T00:00:27.339Z,54.15
2023-04-30T00:01:27.341Z,50.77
2023-04-30T00:02:27.454Z,61.36
2023-04-30T00:03:27.532Z,61.27
2023-04-30T00:04:27.584Z,57.21
2023-04-30T00:05:27.446Z,48.60
2023-04-30T00:06:28.365Z,53.92
2023-04-30T00:07:27.523Z,57.46
2023-04-30T00:08:27.546Z,50.98
2023-04-30T00:09:27.573Z,53.62
2023-04-30T00:10:27.583Z,55.35
2023-04-30T00:11:27.747Z,50.92
2023-04-30T00:12:27.655Z,61.74
2023-04-30T00:13:27.667Z,48.95
2023-04-30T00:14:27.728Z,49.18
2023-04-30T00:15:27.729Z,55.58
2023-04-30T00:16:27.796Z,59.90
2023-04-30T00:17:27.819Z,53.33
2023-04-30T00:18:27.809Z,53.24
2023-04-30T00:19:27.858Z,52.45
2023-04-30T00:20:27.882Z,55.81
2023-04-30T00:21:27.895Z,59.29
2023-04-30T00:22:27.933Z,49.09
2023-04-30T00:23:27.941Z,57.32
2023-04-30T00:24:27.956Z,53.67
2023-04-30T00:25:28.000Z,55.10
2023-04-30T00:26:28.032Z,53.00
2023-04-30T00:27:28.041Z,48.97
2023-04-30T00:28:28.080Z,48.71
2023-04-30T00:29:28.118Z,55.78
2023-04-30T00:30:28.149Z,52.82
2023-04-30T00:31:28.209Z,52.29
2023-04-30T00:32:28.210Z,49.15
2023-04-30T00:33:28.212Z,51.24
2023-04-30T00:34:28.241Z,52.22
2023-04-30T00:35:28.301Z,54.64
2023-04-30T00:36:28.285Z,48.22
2023-04-30T00:37:28.328Z,51.86
2023-04-30T00:38:28.351Z,55.55
2023-04-30T00:39:28.418Z,50.69
2023-04-30T00:40:28.488Z,53.28
2023-04-30T00:41:28.492Z,53.82
2023-04-30T00:42:28.504Z,50.18
2023-04-30T00:43:28.541Z,51.74
2023-04-30T00:44:28.601Z,48.32
2023-04-30T00:45:28.585Z,49.57
2023-04-30T00:46:28.809Z,54.10
2023-04-30T00:47:28.681Z,45.19
2023-04-30T00:48:28.688Z,58.30
2023-04-30T00:49:28.759Z,48.12
2023-04-30T00:50:28.742Z,53.20
2023-04-30T00:51:28.748Z,52.04
2023-04-30T00:52:28.776Z,46.60
2023-04-30T00:53:28.806Z,52.51
2023-04-30T00:54:28.843Z,53.19
2023-04-30T00:55:28.890Z,51.38
2023-04-30T00:56:29.245Z,51.63
2023-04-30T00:57:28.970Z,49.47
2023-04-30T00:58:28.994Z,49.93
2023-04-30T00:59:29.026Z,54.80
2023-04-30T01:00:29.064Z,52.24
2023-04-30T01:01:29.158Z,57.13
2023-04-30T01:02:29.276Z,51.68
2023-04-30T01:03:29.252Z,48.33
2023-04-30T01:04:29.185Z,57.40
2023-04-30T01:05:29.215Z,59.34
2023-04-30T01:06:29.386Z,50.15
2023-04-30T01:07:29.258Z,53.72
2023-04-30T01:08:29.326Z,47.18
2023-04-30T01:09:29.333Z,47.71
2023-04-30T01:10:29.359Z,48.12
2023-04-30T01:11:29.749Z,50.98
2023-04-30T01:12:29.443Z,52.10
2023-04-30T01:13:29.450Z,48.51
2023-04-30T01:14:29.485Z,50.38
2023-04-30T01:15:29.547Z,48.31
2023-04-30T01:16:29.682Z,56.04
2023-04-30T01:17:29.583Z,56.32
2023-04-30T01:18:29.676Z,47.55
2023-04-30T01:19:29.625Z,47.10
2023-04-30T01:20:29.673Z,53.73
2023-04-30T01:21:29.763Z,50.60
2023-04-30T01:22:29.730Z,45.60
2023-04-30T01:23:29.769Z,53.26
2023-04-30T01:24:29.803Z,55.02
2023-04-30T01:25:29.836Z,42.13
2023-04-30T01:26:29.908Z,50.22
2023-04-30T01:27:29.880Z,53.33
2023-04-30T01:28:29.915Z,47.76
2023-04-30T01:29:30.002Z,47.93
2023-04-30T01:30:30.060Z,48.41
2023-04-30T01:31:30.149Z,44.70
2023-04-30T01:32:30.097Z,52.89
2023-04-30T01:33:30.091Z,57.89
2023-04-30T01:34:30.133Z,53.49
2023-04-30T01:35:30.194Z,49.09
2023-04-30T01:36:30.204Z,50.90
2023-04-30T01:37:30.210Z,50.83
2023-04-30T01:38:30.302Z,47.68
2023-04-30T01:39:30.295Z,52.85
2023-04-30T01:40:30.340Z,48.43
2023-04-30T01:41:30.352Z,47.29
2023-04-30T01:42:30.385Z,51.79
2023-04-30T01:43:30.421Z,53.12
2023-04-30T01:44:30.459Z,47.84
2023-04-30T01:45:30.463Z,43.90
2023-04-30T01:46:32.240Z,49.93
2023-04-30T01:47:30.567Z,52.60
2023-04-30T01:48:30.582Z,46.03
2023-04-30T01:49:30.653Z,48.85
2023-04-30T01:50:30.660Z,54.12
2023-04-30T01:51:30.689Z,43.88
2023-04-30T01:52:30.717Z,47.43
2023-04-30T01:53:30.720Z,47.74
2023-04-30T01:54:30.754Z,50.04
2023-04-30T01:55:30.797Z,43.53
2023-04-30T01:56:30.814Z,51.06
2023-04-30T01:57:30.838Z,54.80
2023-04-30T01:58:30.879Z,48.43
2023-04-30T01:59:30.936Z,50.27
2023-04-30T02:00:30.919Z,52.46
2023-04-30T02:01:31.056Z,53.71
2023-04-30T02:02:31.087Z,44.82
2023-04-30T02:03:31.120Z,40.65
2023-04-30T02:04:31.049Z,44.44
2023-04-30T02:05:31.092Z,47.65
2023-04-30T02:06:31.096Z,49.67
2023-04-30T02:07:31.122Z,54.28
2023-04-30T02:08:31.153Z,48.87
2023-04-30T02:09:31.186Z,51.35
2023-04-30T02:10:31.204Z,47.26
2023-04-30T02:11:31.198Z,53.98
2023-04-30T02:12:31.265Z,45.41
2023-04-30T02:13:31.253Z,46.68
2023-04-30T02:14:31.299Z,55.06
2023-04-30T02:15:31.343Z,46.15
2023-04-30T02:16:31.379Z,49.81
2023-04-30T02:17:31.396Z,46.41
2023-04-30T02:18:31.404Z,47.68
2023-04-30T02:19:31.445Z,42.84
2023-04-30T02:20:31.474Z,49.03
2023-04-30T02:21:31.495Z,53.24
2023-04-30T02:22:31.553Z,42.65
2023-04-30T02:23:31.563Z,41.24
2023-04-30T02:24:31.593Z,54.74
2023-04-30T02:25:31.575Z,50.75
2023-04-30T02:26:31.638Z,49.51
2023-04-30T02:27:31.659Z,51.05
2023-04-30T02:28:31.741Z,50.19
2023-04-30T02:29:31.714Z,44.10
2023-04-30T02:30:31.781Z,51.43
2023-04-30T02:31:31.783Z,46.41
2023-04-30T02:32:31.801Z,52.77
2023-04-30T02:33:31.814Z,50.04
2023-04-30T02:34:31.862Z,45.76
2023-04-30T02:35:31.890Z,41.66
2023-04-30T02:36:31.922Z,51.25
2023-04-30T02:37:31.924Z,52.73
2023-04-30T02:38:31.965Z,49.14
2023-04-30T02:39:32.085Z,44.35
2023-04-30T02:40:32.056Z,47.56
2023-04-30T02:41:32.057Z,51.57
2023-04-30T02:42:32.076Z,47.03
2023-04-30T02:43:32.114Z,54.17
2023-04-30T02:44:32.234Z,46.67
2023-04-30T02:45:32.239Z,45.21
2023-04-30T02:46:32.316Z,40.14
2023-04-30T02:47:32.321Z,46.53
2023-04-30T02:48:32.291Z,43.72
2023-04-30T02:49:32.363Z,43.80
2023-04-30T02:50:32.383Z,47.66
2023-04-30T02:51:32.411Z,44.70
2023-04-30T02:52:32.415Z,51.35
2023-04-30T02:53:32.490Z,49.89
2023-04-30T02:54:32.552Z,42.34
2023-04-30T02:55:32.572Z,47.19
2023-04-30T02:56:32.596Z,48.22
2023-04-30T02:57:32.691Z,45.23
2023-04-30T02:58:32.685Z,55.76
2023-04-30T02:59:32.653Z,46.79
2023-04-30T03:00:32.730Z,37.64
2023-04-30T03:01:32.798Z,52.10
2023-04-30T03:02:32.842Z,39.60
2023-04-30T03:03:32.817Z,47.86
2023-04-30T03:04:32.911Z,39.71
2023-04-30T03:05:32.851Z,47.88
2023-04-30T03:06:32.957Z,45.82
2023-04-30T03:07:33.042Z,44.27
2023-04-30T03:08:32.956Z,45.58
2023-04-30T03:09:32.977Z,46.10
2023-04-30T03:10:33.019Z,50.19
2023-04-30T03:11:33.278Z,38.42
2023-04-30T03:12:33.100Z,51.88
2023-04-30T03:13:33.149Z,42.27
2023-04-30T03:14:33.172Z,49.06
2023-04-30T03:15:33.195Z,44.05
2023-04-30T03:16:33.288Z,46.82
2023-04-30T03:17:33.267Z,48.44
2023-04-30T03:18:33.328Z,46.61
2023-04-30T03:19:33.345Z,51.07
2023-04-30T03:20:33.371Z,40.03
2023-04-30T03:21:33.404Z,48.21
2023-04-30T03:22:33.477Z,40.05
2023-04-30T03:23:33.465Z,41.91
2023-04-30T03:24:33.526Z,41.38
2023-04-30T03:25:33.595Z,45.28
2023-04-30T03:26:33.639Z,40.72
2023-04-30T03:27:33.634Z,47.37
2023-04-30T03:28:33.670Z,46.06
2023-04-30T03:29:33.730Z,43.68
2023-04-30T03:30:33.733Z,41.27
2023-04-30T03:31:33.799Z,44.52
2023-04-30T03:32:33.863Z,46.51
2023-04-30T03:33:33.938Z,49.36
2023-04-30T03:34:33.890Z,44.29
2023-04-30T03:35:33.950Z,40.90
2023-04-30T03:36:33.963Z,43.82
2023-04-30T03:37:34.084Z,44.37
2023-04-30T03:38:34.060Z,42.26
2023-04-30T03:39:34.397Z,50.50
2023-04-30T03:40:34.123Z,45.11
2023-04-30T03:41:34.167Z,40.45
2023-04-30T03:42:34.194Z,47.56
2023-04-30T03:43:34.238Z,46.64
2023-04-30T03:44:34.272Z,42.43
2023-04-30T03:45:34.287Z,45.97
2023-04-30T03:46:34.402Z,42.20
2023-04-30T03:47:34.411Z,47.91
2023-04-30T03:48:34.387Z,44.20
2023-04-30T03:49:34.420Z,43.91
2023-04-30T03:50:34.464Z,41.65
2023-04-30T03:51:34.519Z,44.57
2023-04-30T03:52:34.523Z,42.80
2023-04-30T03:53:34.614Z,45.93
2023-04-30T03:54:34.666Z,44.66
2023-04-30T03:55:34.688Z,38.88
2023-04-30T03:56:34.697Z,42.56
2023-04-30T03:57:34.781Z,49.08
2023-04-30T03:58:34.761Z,41.94
2023-04-30T03:59:34.814Z,42.85
2023-04-30T04:00:34.879Z,41.50
2023-04-30T04:01:34.951Z,42.57
2023-04-30T04:02:34.985Z,38.84
2023-04-30T04:03:35.028Z,37.03
2023-04-30T04:04:35.078Z,42.73
2023-04-30T04:05:35.081Z,45.10
2023-04-30T04:06:35.172Z,47.56
2023-04-30T04:07:35.185Z,41.24
2023-04-30T04:08:35.169Z,44.90
2023-04-30T04:09:35.246Z,42.99
2023-04-30T04:10:35.246Z,37.40
2023-04-30T04:11:35.341Z,36.53
2023-04-30T04:12:35.330Z,42.19
2023-04-30T04:13:35.396Z,35.85
2023-04-30T04:14:35.385Z,44.61
2023-04-30T04:15:35.457Z,40.25
2023-04-30T04:16:35.526Z,42.32
2023-04-30T04:17:35.543Z,44.12
2023-04-30T04:18:35.566Z,47.04
2023-04-30T04:19:35.629Z,44.63
2023-04-30T04:20:35.664Z,43.66
2023-04-30T04:21:35.687Z,42.97
2023-04-30T04:22:35.738Z,41.30
2023-04-30T04:23:35.784Z,43.68
2023-04-30T04:24:36.359Z,41.75
2023-04-30T04:25:35.872Z,41.45
2023-04-30T04:26:35.882Z,39.53
2023-04-30T04:27:35.952Z,37.82
2023-04-30T04:28:35.950Z,35.64
2023-04-30T04:29:35.982Z,46.90
2023-04-30T04:30:36.013Z,44.24
2023-04-30T04:31:36.131Z,36.37
2023-04-30T04:32:36.160Z,44.36
2023-04-30T04:33:36.180Z,33.43
2023-04-30T04:34:36.226Z,46.15
2023-04-30T04:35:36.230Z,42.47
2023-04-30T04:36:36.286Z,34.57
2023-04-30T04:37:36.370Z,35.34
2023-04-30T04:38:36.336Z,34.05
2023-04-30T04:39:36.410Z,34.48
2023-04-30T04:40:36.488Z,37.19
2023-04-30T04:41:36.573Z,35.61
2023-04-30T04:42:36.597Z,42.54
2023-04-30T04:43:36.668Z,40.07
2023-04-30T04:44:36.715Z,39.38
2023-04-30T04:45:36.722Z,40.61
2023-04-30T04:46:36.842Z,39.03
2023-04-30T04:47:36.899Z,36.41
2023-04-30T04:48:36.830Z,42.05
2023-04-30T04:49:36.902Z,34.68
2023-04-30T04:50:36.917Z,40.24
2023-04-30T04:51:36.985Z,37.52
2023-04-30T04:52:36.972Z,42.41
2023-04-30T04:53:37.028Z,41.51
2023-04-30T04:54:37.052Z,35.93
2023-04-30T04:55:37.094Z,31.84
2023-04-30T04:56:37.373Z,37.32
2023-04-30T04:57:37.177Z,34.98
2023-04-30T04:58:37.166Z,37.93
2023-04-30T04:59:37.233Z,47.51
2023-04-30T05:00:37.268Z,35.63
2023-04-30T05:01:37.340Z,44.04
2023-04-30T05:02:37.450Z,31.45
2023-04-30T05:03:37.438Z,33.55
2023-04-30T05:04:37.394Z,36.03
2023-04-30T05:05:37.474Z,35.14
2023-04-30T05:06:37.562Z,41.76
2023-04-30T05:07:37.488Z,40.73
2023-04-30T05:08:37.539Z,37.91
2023-04-30T05:09:37.567Z,39.33
2023-04-30T05:10:37.610Z,39.25
2023-04-30T05:11:37.650Z,44.18
2023-04-30T05:12:37.728Z,36.72
2023-04-30T05:13:37.707Z,36.07
2023-04-30T05:14:37.793Z,40.46
2023-04-30T05:15:37.878Z,35.36
2023-04-30T05:16:37.962Z,37.88
2023-04-30T05:17:37.889Z,42.73
2023-04-30T05:18:37.889Z,44.48
2023-04-30T05:19:37.919Z,40.52
2023-04-30T05:20:37.970Z,41.87
2023-04-30T05:21:38.010Z,33.64
2023-04-30T05:22:38.061Z,44.96
2023-04-30T05:23:38.091Z,38.18
2023-04-30T05:24:38.373Z,34.47
2023-04-30T05:25:38.167Z,41.33
2023-04-30T05:26:38.234Z,38.30
2023-04-30T05:27:38.279Z,37.06
2023-04-30T05:28:38.371Z,40.40
2023-04-30T05:29:38.347Z,38.80
2023-04-30T05:30:38.348Z,40.54
2023-04-30T05:31:38.411Z,40.51
2023-04-30T05:32:38.466Z,41.94
2023-04-30T05:33:38.548Z,38.25
2023-04-30T05:34:38.562Z,37.75
2023-04-30T05:35:38.566Z,36.18
2023-04-30T05:36:38.602Z,43.86
2023-04-30T05:37:38.607Z,40.34
2023-04-30T05:38:38.665Z,35.01
2023-04-30T05:39:38.864Z,42.92
2023-04-30T05:40:38.892Z,36.78
2023-04-30T05:41:38.946Z,34.30
2023-04-30T05:42:38.919Z,33.19
2023-04-30T05:43:38.899Z,33.75
2023-04-30T05:44:38.946Z,38.06
2023-04-30T05:45:38.984Z,38.09
2023-04-30T05:46:38.963Z,40.82
2023-04-30T05:47:39.098Z,42.91
2023-04-30T05:48:39.107Z,32.66
2023-04-30T05:49:39.110Z,34.31
2023-04-30T05:50:39.162Z,33.65
2023-04-30T05:51:39.169Z,32.05
2023-04-30T05:52:39.231Z,37.18
2023-04-30T05:53:39.265Z,37.00
2023-04-30T05:54:39.303Z,32.76
2023-04-30T05:55:39.335Z,38.71
2023-04-30T05:56:39.368Z,33.60
2023-04-30T05:57:39.439Z,35.17
2023-04-30T05:58:39.447Z,38.83
2023-04-30T05:59:39.513Z,36.36
2023-04-30T06:00:39.553Z,32.03
2023-04-30T06:01:39.704Z,36.51
2023-04-30T06:02:39.748Z,32.67
2023-04-30T06:03:39.700Z,42.37
2023-04-30T06:04:39.763Z,36.11
2023-04-30T06:05:39.785Z,37.98
2023-04-30T06:06:39.831Z,32.93
2023-04-30T06:07:39.817Z,40.82
2023-04-30T06:08:39.886Z,39.45
2023-04-30T06:09:39.970Z,31.07
2023-04-30T06:10:39.925Z,33.37
2023-04-30T06:11:42.294Z,30.40
2023-04-30T06:12:40.119Z,41.16
2023-04-30T06:13:40.153Z,38.74
2023-04-30T06:14:40.211Z,36.82
2023-04-30T06:15:40.325Z,35.60
2023-04-30T06:16:40.302Z,35.68
2023-04-30T06:17:40.413Z,32.84
2023-04-30T06:18:40.394Z,35.84
2023-04-30T06:19:40.436Z,39.02
2023-04-30T06:20:40.480Z,31.06
2023-04-30T06:21:40.561Z,28.18
2023-04-30T06:22:40.538Z,27.15
2023-04-30T06:23:40.581Z,35.40
2023-04-30T06:24:40.658Z,33.03
2023-04-30T06:25:40.644Z,30.37
2023-04-30T06:26:40.748Z,39.97
2023-04-30T06:27:40.745Z,38.69
2023-04-30T06:28:40.820Z,29.09
2023-04-30T06:29:40.825Z,35.70
2023-04-30T06:30:40.930Z,38.01
2023-04-30T06:31:40.950Z,30.39
2023-04-30T06:32:41.044Z,37.91
2023-04-30T06:33:41.018Z,31.19
2023-04-30T06:34:41.046Z,38.24
2023-04-30T06:35:41.080Z,41.47
2023-04-30T06:36:41.119Z,33.66
2023-04-30T06:37:41.185Z,37.90
2023-04-30T06:38:41.214Z,31.89
2023-04-30T06:39:41.225Z,29.39
2023-04-30T06:40:41.260Z,41.76
2023-04-30T06:41:41.313Z,32.15
2023-04-30T06:42:41.402Z,30.94
2023-04-30T06:43:41.462Z,34.36
2023-04-30T06:44:41.440Z,25.00
2023-04-30T06:45:41.517Z,40.17
2023-04-30T06:46:41.551Z,41.67
2023-04-30T06:47:41.583Z,37.92
2023-04-30T06:48:41.597Z,40.24
2023-04-30T06:49:41.644Z,37.14
2023-04-30T06:50:41.665Z,37.56
2023-04-30T06:51:41.701Z,37.87
2023-04-30T06:52:41.888Z,30.43
2023-04-30T06:53:41.823Z,29.40
2023-04-30T06:54:41.807Z,39.04
2023-04-30T06:55:41.864Z,32.35
2023-04-30T06:56:41.872Z,32.27
2023-04-30T06:57:41.929Z,32.17
2023-04-30T06:58:41.945Z,30.69
2023-04-30T06:59:41.998Z,33.93
2023-04-30T07:00:41.999Z,39.44
2023-04-30T07:01:42.089Z,29.43
2023-04-30T07:02:42.110Z,37.63
2023-04-30T07:03:42.246Z,30.83
2023-04-30T07:04:42.147Z,36.34
2023-04-30T07:05:42.158Z,28.16
2023-04-30T07:06:42.405Z,34.89
2023-04-30T07:07:42.360Z,40.71
2023-04-30T07:08:42.270Z,38.42
2023-04-30T07:09:42.350Z,34.29
2023-04-30T07:10:42.327Z,30.57
2023-04-30T07:11:42.353Z,31.28
2023-04-30T07:12:42.464Z,29.73
2023-04-30T07:13:42.436Z,34.97
2023-04-30T07:14:42.483Z,35.90
2023-04-30T07:15:42.545Z,37.06
2023-04-30T07:16:42.577Z,27.18
2023-04-30T07:17:42.660Z,30.03
2023-04-30T07:18:42.624Z,35.86
2023-04-30T07:19:42.694Z,31.34
2023-04-30T07:20:42.692Z,29.72
2023-04-30T07:21:42.714Z,25.00
2023-04-30T07:22:42.835Z,35.17
2023-04-30T07:23:42.800Z,33.57
2023-04-30T07:24:42.847Z,29.50
2023-04-30T07:25:42.878Z,34.56
2023-04-30T07:26:42.909Z,31.27
2023-04-30T07:27:43.387Z,33.11
2023-04-30T07:28:42.951Z,30.61
2023-04-30T07:29:42.974Z,33.97
2023-04-30T07:30:43.036Z,35.70
2023-04-30T07:31:43.172Z,28.59
2023-04-30T07:32:43.113Z,33.89
2023-04-30T07:33:43.137Z,28.92
2023-04-30T07:34:43.127Z,28.30
2023-04-30T07:35:43.176Z,29.46
2023-04-30T07:36:43.216Z,31.15
2023-04-30T07:37:43.231Z,36.84
2023-04-30T07:38:43.258Z,30.30
2023-04-30T07:39:43.312Z,30.86
2023-04-30T07:40:43.327Z,35.94
2023-04-30T07:41:43.341Z,30.54
2023-04-30T07:42:43.359Z,26.45
2023-04-30T07:43:43.379Z,31.26
2023-04-30T07:44:43.399Z,29.56
2023-04-30T07:45:43.517Z,30.10
2023-04-30T07:46:43.554Z,26.43
2023-04-30T07:47:43.513Z,40.53
2023-04-30T07:48:43.536Z,34.37
2023-04-30T07:49:43.547Z,28.26
2023-04-30T07:50:43.574Z,29.54
2023-04-30T07:51:43.637Z,31.92
2023-04-30T07:52:43.641Z,36.07
2023-04-30T07:53:43.696Z,25.00
2023-04-30T07:54:43.683Z,35.26
2023-04-30T07:55:43.721Z,39.08
2023-04-30T07:56:43.774Z,36.99
2023-04-30T07:57:43.819Z,25.14
2023-04-30T07:58:43.810Z,28.63
2023-04-30T07:59:43.815Z,32.14
2023-04-30T08:00:43.864Z,33.82
2023-04-30T08:01:43.933Z,34.58
2023-04-30T08:02:44.368Z,34.01
2023-04-30T08:03:44.046Z,38.38
2023-04-30T08:04:43.948Z,29.72
2023-04-30T08:05:43.948Z,29.71
2023-04-30T08:06:44.025Z,30.59
2023-04-30T08:07:44.033Z,27.94
2023-04-30T08:08:44.137Z,29.50
2023-04-30T08:09:44.104Z,32.53
2023-04-30T08:10:44.088Z,36.44
2023-04-30T08:11:44.111Z,32.30
2023-04-30T08:12:44.130Z,30.79
2023-04-30T08:13:44.168Z,30.55
2023-04-30T08:14:44.215Z,31.37
2023-04-30T08:15:44.184Z,29.59
2023-04-30T08:16:44.308Z,35.34
2023-04-30T08:17:44.319Z,38.80
2023-04-30T08:18:44.289Z,35.12
2023-04-30T08:19:44.310Z,33.86
2023-04-30T08:20:44.346Z,38.74
2023-04-30T08:21:44.391Z,33.50
2023-04-30T08:22:44.419Z,31.37
2023-04-30T08:23:44.451Z,31.99
2023-04-30T08:24:44.462Z,30.93
2023-04-30T08:25:44.504Z,36.50
2023-04-30T08:26:44.545Z,37.84
2023-04-30T08:27:44.568Z,33.68
2023-04-30T08:28:44.581Z,38.30
2023-04-30T08:29:44.650Z,30.95
2023-04-30T08:30:44.683Z,39.26
2023-04-30T08:31:44.696Z,35.51
2023-04-30T08:32:44.757Z,34.09
2023-04-30T08:33:44.749Z,31.42
2023-04-30T08:34:44.753Z,36.81
2023-04-30T08:35:44.912Z,33.84
2023-04-30T08:36:44.816Z,40.31
2023-04-30T08:37:44.852Z,34.41
2023-04-30T08:38:44.862Z,37.66
2023-04-30T08:39:44.938Z,37.93
2023-04-30T08:40:51.563Z,39.18
2023-04-30T08:41:45.944Z,38.22
2023-04-30T08:42:44.933Z,33.47
2023-04-30T08:43:44.954Z,31.83
2023-04-30T08:44:44.923Z,31.73
2023-04-30T08:45:44.921Z,35.03
2023-04-30T08:46:44.925Z,35.93
2023-04-30T08:47:44.987Z,36.38
2023-04-30T08:48:44.909Z,35.21
2023-04-30T08:49:44.922Z,31.39
2023-04-30T08:50:44.905Z,29.03
2023-04-30T08:51:44.862Z,30.58
2023-04-30T08:52:44.877Z,36.09
2023-04-30T08:53:44.883Z,28.00
2023-04-30T08:54:44.853Z,32.96
2023-04-30T08:55:44.887Z,31.80
2023-04-30T08:56:45.025Z,37.21
2023-04-30T08:57:44.903Z,36.60
2023-04-30T08:58:44.989Z,31.52
2023-04-30T08:59:44.962Z,37.06
2023-04-30T09:00:45.013Z,30.34
2023-04-30T09:01:45.051Z,34.77
2023-04-30T09:02:45.153Z,31.12
2023-04-30T09:03:45.174Z,29.89
2023-04-30T09:04:45.154Z,28.82
2023-04-30T09:05:45.165Z,42.70
2023-04-30T09:06:45.283Z,33.31
2023-04-30T09:07:55.982Z,31.01
2023-04-30T09:08:46.241Z,31.31
2023-04-30T09:09:45.231Z,31.61
2023-04-30T09:10:45.201Z,32.14
2023-04-30T09:11:45.275Z,37.28
2023-04-30T09:12:45.183Z,38.81
2023-04-30T09:13:45.200Z,29.49
2023-04-30T09:14:45.187Z,35.93
2023-04-30T09:15:45.188Z,38.65
2023-04-30T09:16:45.226Z,33.00
2023-04-30T09:17:46.008Z,37.66
2023-04-30T09:18:45.297Z,36.03
2023-04-30T09:19:45.286Z,33.73
2023-04-30T09:20:45.337Z,36.09
2023-04-30T09:21:45.362Z,38.04
2023-04-30T09:22:45.424Z,27.91
2023-04-30T09:23:45.437Z,37.05
2023-04-30T09:24:45.459Z,30.58
2023-04-30T09:25:45.484Z,29.55
2023-04-30T09:26:45.547Z,34.90
2023-04-30T09:27:45.559Z,33.41
2023-04-30T09:28:45.580Z,29.94
2023-04-30T09:29:45.610Z,28.86
2023-04-30T09:30:45.670Z,31.02
2023-04-30T09:31:45.839Z,37.26
2023-04-30T09:32:45.748Z,33.51
2023-04-30T09:33:45.739Z,34.50
2023-04-30T09:34:45.785Z,30.54
2023-04-30T09:35:45.817Z,28.99
2023-04-30T09:36:45.832Z,30.67
2023-04-30T09:37:45.855Z,34.01
2023-04-30T09:38:45.885Z,37.24
2023-04-30T09:39:45.944Z,31.13
2023-04-30T09:40:45.963Z,33.24
2023-04-30T09:41:46.004Z,31.62
2023-04-30T09:42:45.999Z,31.03
2023-04-30T09:43:46.929Z,27.44
2023-04-30T09:44:46.079Z,30.67
2023-04-30T09:45:46.110Z,29.77
2023-04-30T09:46:46.162Z,34.63
2023-04-30T09:47:46.190Z,31.68
2023-04-30T09:48:46.176Z,35.01
2023-04-30T09:49:46.227Z,27.00
2023-04-30T09:50:46.284Z,30.43
2023-04-30T09:51:46.218Z,27.03
2023-04-30T09:52:46.230Z,35.73
2023-04-30T09:53:46.255Z,30.64
2023-04-30T09:54:46.268Z,28.76
2023-04-30T09:55:46.310Z,28.88
2023-04-30T09:56:46.355Z,29.98
2023-04-30T09:57:46.478Z,31.60
2023-04-30T09:58:46.340Z,29.55
2023-04-30T09:59:46.411Z,31.73
2023-04-30T10:00:46.483Z,32.20
2023-04-30T10:01:46.357Z,31.38
2023-04-30T10:02:46.393Z,30.65
2023-04-30T10:03:46.411Z,27.78
2023-04-30T10:04:46.402Z,30.28
2023-04-30T10:05:46.420Z,29.67
2023-04-30T10:06:46.628Z,28.44
2023-04-30T10:07:46.518Z,35.11
2023-04-30T10:08:46.499Z,30.87
2023-04-30T10:09:46.545Z,30.72
2023-04-30T10:10:46.562Z,30.93
2023-04-30T10:11:46.595Z,29.38
2023-04-30T10:12:46.605Z,31.71
2023-04-30T10:13:46.582Z,28.49
2023-04-30T10:14:46.607Z,29.00
2023-04-30T10:15:46.637Z,28.62
2023-04-30T10:16:46.754Z,29.38
2023-04-30T10:17:46.706Z,29.91
2023-04-30T10:18:46.665Z,31.38
2023-04-30T10:19:47.954Z,29.79
2023-04-30T10:20:46.710Z,27.68
2023-04-30T10:21:46.720Z,30.62
2023-04-30T10:22:46.749Z,30.82
2023-04-30T10:23:46.774Z,28.98
2023-04-30T10:24:46.716Z,28.27
2023-04-30T10:25:46.753Z,29.74
2023-04-30T10:26:46.812Z,29.09
2023-04-30T10:27:46.837Z,29.14
2023-04-30T10:28:46.807Z,28.66
2023-04-30T10:29:46.847Z,32.27
2023-04-30T10:30:46.889Z,30.05
2023-04-30T10:31:46.936Z,29.55
2023-04-30T10:32:46.927Z,26.87
2023-04-30T10:33:46.895Z,29.23
2023-04-30T10:34:46.913Z,28.39
2023-04-30T10:35:46.920Z,27.41
2023-04-30T10:36:46.946Z,31.41
2023-04-30T10:37:47.002Z,29.27
2023-04-30T10:38:48.503Z,27.25
2023-04-30T10:39:47.009Z,27.71
2023-04-30T10:40:47.037Z,25.67
2023-04-30T10:41:47.059Z,28.52
2023-04-30T10:42:47.066Z,30.25
2023-04-30T10:43:47.089Z,28.92
2023-04-30T10:44:47.042Z,27.15
2023-04-30T10:45:47.101Z,27.36
2023-04-30T10:46:47.115Z,30.83
2023-04-30T10:47:47.146Z,26.44
2023-04-30T10:48:47.077Z,30.02
2023-04-30T10:49:47.152Z,31.22
2023-04-30T10:50:47.167Z,31.87
2023-04-30T10:51:47.175Z,30.37
2023-04-30T10:52:47.503Z,34.70
2023-04-30T10:53:47.227Z,31.83
2023-04-30T10:54:47.188Z,33.64
2023-04-30T10:55:47.249Z,32.11
2023-04-30T10:56:47.225Z,28.67
2023-04-30T10:57:47.284Z,28.08
2023-04-30T10:58:47.319Z,29.30
2023-04-30T10:59:47.343Z,29.03
2023-04-30T11:00:47.349Z,32.31
2023-04-30T11:01:47.365Z,31.11
2023-04-30T11:02:47.467Z,36.59
2023-04-30T11:03:47.349Z,33.66
2023-04-30T11:04:47.392Z,30.22
2023-04-30T11:05:47.377Z,29.92
2023-04-30T11:06:47.420Z,35.45
2023-04-30T11:07:47.411Z,33.60
2023-04-30T11:08:47.392Z,33.03
2023-04-30T11:09:47.412Z,32.10
2023-04-30T11:10:47.429Z,31.71
2023-04-30T11:11:47.454Z,31.96
2023-04-30T11:12:47.467Z,32.68
2023-04-30T11:13:47.452Z,33.75
2023-04-30T11:14:47.453Z,32.64
2023-04-30T11:15:47.568Z,33.13
2023-04-30T11:16:47.489Z,29.48
2023-04-30T11:17:47.581Z,29.52
2023-04-30T11:18:47.527Z,32.13
2023-04-30T11:19:47.550Z,34.20
2023-04-30T11:20:47.570Z,32.87
2023-04-30T11:21:47.561Z,29.94
2023-04-30T11:22:47.597Z,29.36
2023-04-30T11:23:47.570Z,31.89
2023-04-30T11:24:47.579Z,32.19
2023-04-30T11:25:47.620Z,28.10
2023-04-30T11:26:47.626Z,28.72
2023-04-30T11:27:47.692Z,32.07
2023-04-30T11:28:47.756Z,29.37
2023-04-30T11:29:47.735Z,28.55
2023-04-30T11:30:48.010Z,29.16
2023-04-30T11:31:47.867Z,30.20
2023-04-30T11:32:47.963Z,25.70
2023-04-30T11:33:47.943Z,28.34
2023-04-30T11:34:47.929Z,32.12
2023-04-30T11:35:48.020Z,28.85
2023-04-30T11:36:48.024Z,31.21
2023-04-30T11:37:48.056Z,29.83
2023-04-30T11:38:48.123Z,26.72
2023-04-30T11:39:48.128Z,30.87
2023-04-30T11:40:48.154Z,29.26
2023-04-30T11:41:48.214Z,29.63
2023-04-30T11:42:48.257Z,32.06
2023-04-30T11:43:48.301Z,32.47
2023-04-30T11:44:48.329Z,29.48
2023-04-30T11:45:48.390Z,29.54
2023-04-30T11:46:48.440Z,27.73
2023-04-30T11:47:48.526Z,27.84
2023-04-30T11:48:48.546Z,26.88
2023-04-30T11:49:48.569Z,28.06
2023-04-30T11:50:48.632Z,28.63
2023-04-30T11:51:48.691Z,27.37
2023-04-30T11:52:48.833Z,31.88
2023-04-30T11:53:48.856Z,27.35
2023-04-30T11:54:48.817Z,30.52
2023-04-30T11:55:49.494Z,31.34
2023-04-30T11:56:48.924Z,31.10
2023-04-30T11:57:49.003Z,31.04
2023-04-30T11:58:49.041Z,27.73
2023-04-30T11:59:49.065Z,30.12
2023-04-30T12:00:49.160Z,28.50
2023-04-30T12:01:49.192Z,28.19
2023-04-30T12:02:49.311Z,31.31
2023-04-30T12:03:49.341Z,27.54
2023-04-30T12:04:49.314Z,31.16
2023-04-30T12:05:49.378Z,30.58
2023-04-30T12:06:49.565Z,27.76
2023-04-30T12:07:49.418Z,29.76
2023-04-30T12:08:49.482Z,28.42
2023-04-30T12:09:49.503Z,29.85
2023-04-30T12:10:50.084Z,32.49
2023-04-30T12:11:49.638Z,29.71
2023-04-30T12:12:51.314Z,28.60
2023-04-30T12:13:49.691Z,29.99
2023-04-30T12:14:49.662Z,31.59
2023-04-30T12:15:49.682Z,30.28
2023-04-30T12:16:49.807Z,28.85
2023-04-30T12:17:49.637Z,27.15
2023-04-30T12:18:51.348Z,26.72
2023-04-30T12:19:49.604Z,26.90
2023-04-30T12:20:49.660Z,27.25
2023-04-30T12:21:49.704Z,27.74
2023-04-30T12:22:49.606Z,27.31
2023-04-30T12:23:49.603Z,32.16
2023-04-30T12:24:49.585Z,29.56
2023-04-30T12:25:49.562Z,27.85
2023-04-30T12:26:49.562Z,28.07
2023-04-30T12:27:49.578Z,29.30
2023-04-30T12:28:49.558Z,28.05
2023-04-30T12:29:49.564Z,26.37
2023-04-30T12:30:49.581Z,27.16
2023-04-30T12:31:49.619Z,27.05
2023-04-30T12:32:49.553Z,29.31
2023-04-30T12:33:49.537Z,28.65
2023-04-30T12:34:49.504Z,30.33
2023-04-30T12:35:49.521Z,31.17
2023-04-30T12:36:49.484Z,26.90
2023-04-30T12:37:49.465Z,30.52
2023-04-30T12:38:49.483Z,28.82
2023-04-30T12:39:49.485Z,30.22
2023-04-30T12:40:49.463Z,31.81
2023-04-30T12:41:49.440Z,29.21
2023-04-30T12:42:49.445Z,31.95
2023-04-30T12:43:49.479Z,32.61
2023-04-30T12:44:49.496Z,30.58
2023-04-30T12:45:49.468Z,32.55
2023-04-30T12:46:49.463Z,31.01
2023-04-30T12:47:49.472Z,32.63
2023-04-30T12:48:49.415Z,30.67
2023-04-30T12:49:49.421Z,32.18
2023-04-30T12:50:49.398Z,31.87
2023-04-30T12:51:49.411Z,32.75
2023-04-30T12:52:49.406Z,32.80